Nieuw-Loosdrecht, Netherlands
Current Conditions -  °F | °C
As of 6:25 AM on Sunday 21 Dec 2014 (Local Time) from EHAM Reporting Station
Few Clouds Few Clouds  
Wind Chill: 36°   Ceiling: Unl
Heat Index: 41°   Visibility: 6mi
Dew Point: 39°   Wind: 8mph
Humidity: 93%   Direction: 220°SW
Pressure: 30.33"   Gusts: NA
Location:  52.2°N, 5.14°E
Report Text: EHAM 210525Z 22007KT 9999 FEW020 05/04 Q1027 NOSIG
Loading
Personal Weather Stations






























Interactive Weather Map New forecast layout! Learn more

10-Day Weather Forecast

Advertisements
Track Severe Weather on mobile